sensor_id;sensor_type;location;lat;lon;timestamp;P1;durP1;ratioP1;P2;durP2;ratioP2
14847;SDS011;7516;43.570;1.448;2022-11-20T00:00:49;1.27;;;0.90;;
14847;SDS011;7516;43.570;1.448;2022-11-20T00:03:18;1.97;;;1.00;;
14847;SDS011;7516;43.570;1.448;2022-11-20T00:05:46;1.70;;;1.10;;
14847;SDS011;7516;43.570;1.448;2022-11-20T00:08:14;1.43;;;1.00;;
14847;SDS011;7516;43.570;1.448;2022-11-20T00:10:41;1.53;;;1.00;;
14847;SDS011;7516;43.570;1.448;2022-11-20T00:13:09;2.13;;;1.10;;
14847;SDS011;7516;43.570;1.448;2022-11-20T00:15:36;1.50;;;1.00;;
14847;SDS011;7516;43.570;1.448;2022-11-20T00:18:04;2.33;;;1.20;;
14847;SDS011;7516;43.570;1.448;2022-11-20T00:20:32;1.00;;;0.87;;
14847;SDS011;7516;43.570;1.448;2022-11-20T00:23:00;1.50;;;1.00;;
14847;SDS011;7516;43.570;1.448;2022-11-20T00:25:27;1.37;;;0.80;;
14847;SDS011;7516;43.570;1.448;2022-11-20T00:27:55;1.10;;;0.90;;
14847;SDS011;7516;43.570;1.448;2022-11-20T00:30:22;1.00;;;0.90;;
14847;SDS011;7516;43.570;1.448;2022-11-20T00:32:50;1.37;;;1.00;;
14847;SDS011;7516;43.570;1.448;2022-11-20T00:35:17;1.07;;;0.90;;
14847;SDS011;7516;43.570;1.448;2022-11-20T00:37:46;2.40;;;1.00;;
14847;SDS011;7516;43.570;1.448;2022-11-20T00:40:13;1.43;;;1.10;;
14847;SDS011;7516;43.570;1.448;2022-11-20T00:42:41;1.30;;;0.90;;
14847;SDS011;7516;43.570;1.448;2022-11-20T00:45:09;2.10;;;1.00;;
14847;SDS011;7516;43.570;1.448;2022-11-20T00:47:36;1.30;;;0.93;;
14847;SDS011;7516;43.570;1.448;2022-11-20T00:50:04;1.73;;;1.10;;
14847;SDS011;7516;43.570;1.448;2022-11-20T00:52:32;1.03;;;0.93;;
14847;SDS011;7516;43.570;1.448;2022-11-20T00:55:01;1.20;;;0.90;;
14847;SDS011;7516;43.570;1.448;2022-11-20T00:57:29;1.30;;;0.90;;
14847;SDS011;7516;43.570;1.448;2022-11-20T00:59:57;2.03;;;1.00;;
14847;SDS011;7516;43.570;1.448;2022-11-20T01:02:24;1.40;;;0.93;;
14847;SDS011;7516;43.570;1.448;2022-11-20T01:04:52;1.67;;;0.97;;
14847;SDS011;7516;43.570;1.448;2022-11-20T01:07:19;1.10;;;0.90;;
14847;SDS011;7516;43.570;1.448;2022-11-20T01:09:47;1.80;;;0.90;;
14847;SDS011;7516;43.570;1.448;2022-11-20T01:12:16;1.37;;;1.00;;
14847;SDS011;7516;43.570;1.448;2022-11-20T01:14:43;1.80;;;0.90;;
14847;SDS011;7516;43.570;1.448;2022-11-20T01:17:10;1.40;;;1.10;;
14847;SDS011;7516;43.570;1.448;2022-11-20T01:19:38;1.37;;;1.03;;
14847;SDS011;7516;43.570;1.448;2022-11-20T01:22:06;1.57;;;0.90;;
14847;SDS011;7516;43.570;1.448;2022-11-20T01:24:33;1.20;;;0.80;;
14847;SDS011;7516;43.570;1.448;2022-11-20T01:27:01;1.53;;;0.73;;
14847;SDS011;7516;43.570;1.448;2022-11-20T01:29:29;1.20;;;0.90;;
14847;SDS011;7516;43.570;1.448;2022-11-20T01:31:57;1.53;;;1.00;;
14847;SDS011;7516;43.570;1.448;2022-11-20T01:34:24;0.93;;;0.83;;
14847;SDS011;7516;43.570;1.448;2022-11-20T01:36:52;1.37;;;0.83;;
14847;SDS011;7516;43.570;1.448;2022-11-20T01:39:20;1.20;;;0.90;;
14847;SDS011;7516;43.570;1.448;2022-11-20T01:41:50;1.63;;;1.10;;
14847;SDS011;7516;43.570;1.448;2022-11-20T01:44:51;1.53;;;1.00;;
14847;SDS011;7516;43.570;1.448;2022-11-20T01:47:21;1.57;;;1.10;;
14847;SDS011;7516;43.570;1.448;2022-11-20T01:49:54;2.27;;;1.00;;
14847;SDS011;7516;43.570;1.448;2022-11-20T01:52:27;1.50;;;1.03;;
14847;SDS011;7516;43.570;1.448;2022-11-20T01:55:01;1.10;;;1.00;;
14847;SDS011;7516;43.570;1.448;2022-11-20T01:57:33;1.77;;;1.00;;
14847;SDS011;7516;43.570;1.448;2022-11-20T02:00:05;1.17;;;0.90;;
14847;SDS011;7516;43.570;1.448;2022-11-20T02:02:34;1.43;;;1.00;;
14847;SDS011;7516;43.570;1.448;2022-11-20T02:05:04;1.13;;;0.90;;
14847;SDS011;7516;43.570;1.448;2022-11-20T02:07:40;1.33;;;1.13;;
14847;SDS011;7516;43.570;1.448;2022-11-20T02:10:09;0.80;;;0.77;;
14847;SDS011;7516;43.570;1.448;2022-11-20T02:12:37;1.43;;;0.97;;
14847;SDS011;7516;43.570;1.448;2022-11-20T02:15:24;1.10;;;0.80;;
14847;SDS011;7516;43.570;1.448;2022-11-20T02:17:51;1.20;;;0.80;;
14847;SDS011;7516;43.570;1.448;2022-11-20T02:20:19;1.70;;;1.00;;
14847;SDS011;7516;43.570;1.448;2022-11-20T02:22:48;1.47;;;0.90;;
14847;SDS011;7516;43.570;1.448;2022-11-20T02:25:22;1.43;;;0.97;;
14847;SDS011;7516;43.570;1.448;2022-11-20T02:27:53;1.87;;;0.90;;
14847;SDS011;7516;43.570;1.448;2022-11-20T02:30:20;1.00;;;0.70;;
14847;SDS011;7516;43.570;1.448;2022-11-20T02:32:48;1.13;;;0.80;;
14847;SDS011;7516;43.570;1.448;2022-11-20T02:38:05;1.30;;;0.97;;
14847;SDS011;7516;43.570;1.448;2022-11-20T02:40:34;2.33;;;1.00;;
14847;SDS011;7516;43.570;1.448;2022-11-20T02:43:01;1.10;;;0.87;;
14847;SDS011;7516;43.570;1.448;2022-11-20T02:45:29;0.97;;;0.83;;
14847;SDS011;7516;43.570;1.448;2022-11-20T02:47:56;1.20;;;1.00;;
14847;SDS011;7516;43.570;1.448;2022-11-20T02:50:24;0.80;;;0.80;;
14847;SDS011;7516;43.570;1.448;2022-11-20T02:52:52;1.27;;;0.93;;
14847;SDS011;7516;43.570;1.448;2022-11-20T02:55:19;2.13;;;0.90;;
14847;SDS011;7516;43.570;1.448;2022-11-20T02:57:48;1.30;;;0.90;;
14847;SDS011;7516;43.570;1.448;2022-11-20T03:00:16;1.00;;;0.90;;
14847;SDS011;7516;43.570;1.448;2022-11-20T03:02:44;1.47;;;1.10;;
14847;SDS011;7516;43.570;1.448;2022-11-20T03:05:11;1.00;;;0.90;;
14847;SDS011;7516;43.570;1.448;2022-11-20T03:07:39;1.07;;;0.87;;
14847;SDS011;7516;43.570;1.448;2022-11-20T03:10:07;2.03;;;0.80;;
14847;SDS011;7516;43.570;1.448;2022-11-20T03:12:34;1.30;;;1.00;;
14847;SDS011;7516;43.570;1.448;2022-11-20T03:15:04;1.47;;;1.00;;
14847;SDS011;7516;43.570;1.448;2022-11-20T03:17:32;1.03;;;0.90;;
14847;SDS011;7516;43.570;1.448;2022-11-20T03:20:00;1.30;;;1.00;;
14847;SDS011;7516;43.570;1.448;2022-11-20T03:22:28;0.93;;;0.80;;
14847;SDS011;7516;43.570;1.448;2022-11-20T03:24:56;1.10;;;0.80;;
14847;SDS011;7516;43.570;1.448;2022-11-20T03:27:23;1.80;;;0.87;;
14847;SDS011;7516;43.570;1.448;2022-11-20T03:29:50;0.90;;;0.80;;
14847;SDS011;7516;43.570;1.448;2022-11-20T03:32:19;1.47;;;0.87;;
14847;SDS011;7516;43.570;1.448;2022-11-20T03:34:47;0.97;;;0.87;;
14847;SDS011;7516;43.570;1.448;2022-11-20T03:37:14;1.13;;;0.83;;
14847;SDS011;7516;43.570;1.448;2022-11-20T03:39:42;1.10;;;0.80;;
14847;SDS011;7516;43.570;1.448;2022-11-20T03:42:09;0.77;;;0.77;;
14847;SDS011;7516;43.570;1.448;2022-11-20T03:44:51;1.00;;;0.70;;
14847;SDS011;7516;43.570;1.448;2022-11-20T03:47:20;0.97;;;0.87;;
14847;SDS011;7516;43.570;1.448;2022-11-20T03:49:47;1.17;;;0.80;;
14847;SDS011;7516;43.570;1.448;2022-11-20T03:52:15;1.00;;;0.70;;
14847;SDS011;7516;43.570;1.448;2022-11-20T03:54:42;1.03;;;0.80;;
14847;SDS011;7516;43.570;1.448;2022-11-20T03:57:10;0.97;;;0.80;;
14847;SDS011;7516;43.570;1.448;2022-11-20T03:59:37;1.23;;;0.90;;
14847;SDS011;7516;43.570;1.448;2022-11-20T04:02:05;1.23;;;0.80;;
14847;SDS011;7516;43.570;1.448;2022-11-20T04:04:33;0.87;;;0.80;;
14847;SDS011;7516;43.570;1.448;2022-11-20T04:07:01;1.50;;;1.00;;
14847;SDS011;7516;43.570;1.448;2022-11-20T04:09:29;1.33;;;0.80;;
14847;SDS011;7516;43.570;1.448;2022-11-20T04:11:56;1.20;;;0.70;;
14847;SDS011;7516;43.570;1.448;2022-11-20T04:14:24;1.20;;;0.90;;
14847;SDS011;7516;43.570;1.448;2022-11-20T04:16:51;1.00;;;0.73;;
14847;SDS011;7516;43.570;1.448;2022-11-20T04:19:19;1.40;;;0.70;;
14847;SDS011;7516;43.570;1.448;2022-11-20T04:21:48;1.00;;;0.80;;
14847;SDS011;7516;43.570;1.448;2022-11-20T04:24:15;0.90;;;0.80;;
14847;SDS011;7516;43.570;1.448;2022-11-20T04:26:43;0.80;;;0.70;;
14847;SDS011;7516;43.570;1.448;2022-11-20T04:29:10;1.20;;;0.80;;
14847;SDS011;7516;43.570;1.448;2022-11-20T04:31:38;1.10;;;0.70;;
14847;SDS011;7516;43.570;1.448;2022-11-20T04:34:06;0.90;;;0.73;;
14847;SDS011;7516;43.570;1.448;2022-11-20T04:36:34;0.77;;;0.60;;
14847;SDS011;7516;43.570;1.448;2022-11-20T04:39:03;1.53;;;0.90;;
14847;SDS011;7516;43.570;1.448;2022-11-20T04:41:33;1.30;;;0.73;;
14847;SDS011;7516;43.570;1.448;2022-11-20T04:44:03;0.87;;;0.70;;
14847;SDS011;7516;43.570;1.448;2022-11-20T04:46:32;1.30;;;0.80;;
14847;SDS011;7516;43.570;1.448;2022-11-20T04:49:01;1.10;;;0.80;;
14847;SDS011;7516;43.570;1.448;2022-11-20T04:51:29;1.70;;;0.80;;
14847;SDS011;7516;43.570;1.448;2022-11-20T04:53:56;0.93;;;0.80;;
14847;SDS011;7516;43.570;1.448;2022-11-20T04:56:25;1.57;;;0.90;;
14847;SDS011;7516;43.570;1.448;2022-11-20T04:58:53;1.20;;;0.67;;
14847;SDS011;7516;43.570;1.448;2022-11-20T05:01:21;2.40;;;0.90;;
14847;SDS011;7516;43.570;1.448;2022-11-20T05:03:50;0.67;;;0.60;;
14847;SDS011;7516;43.570;1.448;2022-11-20T05:06:21;1.07;;;0.77;;
14847;SDS011;7516;43.570;1.448;2022-11-20T05:08:49;1.03;;;0.80;;
14847;SDS011;7516;43.570;1.448;2022-11-20T05:11:17;1.37;;;0.70;;
14847;SDS011;7516;43.570;1.448;2022-11-20T05:13:48;1.00;;;0.70;;
14847;SDS011;7516;43.570;1.448;2022-11-20T05:16:17;1.17;;;0.70;;
14847;SDS011;7516;43.570;1.448;2022-11-20T05:18:45;1.00;;;0.80;;
14847;SDS011;7516;43.570;1.448;2022-11-20T05:21:13;0.90;;;0.70;;
14847;SDS011;7516;43.570;1.448;2022-11-20T05:23:41;1.27;;;0.70;;
14847;SDS011;7516;43.570;1.448;2022-11-20T05:26:12;1.30;;;0.90;;
14847;SDS011;7516;43.570;1.448;2022-11-20T05:28:41;1.10;;;0.83;;
14847;SDS011;7516;43.570;1.448;2022-11-20T05:31:10;0.80;;;0.67;;
14847;SDS011;7516;43.570;1.448;2022-11-20T05:33:39;1.17;;;0.90;;
14847;SDS011;7516;43.570;1.448;2022-11-20T05:36:08;0.87;;;0.70;;
14847;SDS011;7516;43.570;1.448;2022-11-20T05:38:36;1.07;;;0.80;;
14847;SDS011;7516;43.570;1.448;2022-11-20T05:41:04;1.30;;;0.80;;
14847;SDS011;7516;43.570;1.448;2022-11-20T05:43:33;0.93;;;0.70;;
14847;SDS011;7516;43.570;1.448;2022-11-20T05:46:00;0.90;;;0.63;;
14847;SDS011;7516;43.570;1.448;2022-11-20T05:48:30;1.50;;;0.70;;
14847;SDS011;7516;43.570;1.448;2022-11-20T05:50:58;0.80;;;0.70;;
14847;SDS011;7516;43.570;1.448;2022-11-20T05:53:26;1.17;;;0.80;;
14847;SDS011;7516;43.570;1.448;2022-11-20T05:55:57;1.27;;;0.80;;
14847;SDS011;7516;43.570;1.448;2022-11-20T05:58:25;1.53;;;0.80;;
14847;SDS011;7516;43.570;1.448;2022-11-20T06:00:53;0.70;;;0.60;;
14847;SDS011;7516;43.570;1.448;2022-11-20T06:03:21;0.50;;;0.50;;
14847;SDS011;7516;43.570;1.448;2022-11-20T06:05:50;0.97;;;0.70;;
14847;SDS011;7516;43.570;1.448;2022-11-20T06:08:17;1.30;;;0.80;;
14847;SDS011;7516;43.570;1.448;2022-11-20T06:10:45;1.13;;;0.70;;
14847;SDS011;7516;43.570;1.448;2022-11-20T06:13:12;0.70;;;0.60;;
14847;SDS011;7516;43.570;1.448;2022-11-20T06:15:40;1.10;;;0.70;;
14847;SDS011;7516;43.570;1.448;2022-11-20T06:18:07;0.80;;;0.70;;
14847;SDS011;7516;43.570;1.448;2022-11-20T06:20:35;0.60;;;0.60;;
14847;SDS011;7516;43.570;1.448;2022-11-20T06:23:03;0.83;;;0.70;;
14847;SDS011;7516;43.570;1.448;2022-11-20T06:25:31;0.90;;;0.63;;
14847;SDS011;7516;43.570;1.448;2022-11-20T06:27:58;1.20;;;0.70;;
14847;SDS011;7516;43.570;1.448;2022-11-20T06:30:26;0.80;;;0.70;;
14847;SDS011;7516;43.570;1.448;2022-11-20T06:32:53;1.10;;;0.80;;
14847;SDS011;7516;43.570;1.448;2022-11-20T06:35:21;0.80;;;0.60;;
14847;SDS011;7516;43.570;1.448;2022-11-20T06:37:48;0.70;;;0.60;;
14847;SDS011;7516;43.570;1.448;2022-11-20T06:40:17;0.63;;;0.60;;
14847;SDS011;7516;43.570;1.448;2022-11-20T06:42:45;1.00;;;0.63;;
14847;SDS011;7516;43.570;1.448;2022-11-20T06:45:12;0.80;;;0.60;;
14847;SDS011;7516;43.570;1.448;2022-11-20T06:47:40;1.80;;;0.70;;
14847;SDS011;7516;43.570;1.448;2022-11-20T06:50:07;1.63;;;0.93;;
14847;SDS011;7516;43.570;1.448;2022-11-20T06:52:35;0.83;;;0.60;;
14847;SDS011;7516;43.570;1.448;2022-11-20T06:55:03;0.97;;;0.60;;
14847;SDS011;7516;43.570;1.448;2022-11-20T06:57:32;0.90;;;0.60;;
14847;SDS011;7516;43.570;1.448;2022-11-20T07:00:00;0.90;;;0.60;;
14847;SDS011;7516;43.570;1.448;2022-11-20T07:02:28;1.13;;;0.70;;
14847;SDS011;7516;43.570;1.448;2022-11-20T07:04:55;3.83;;;0.93;;
14847;SDS011;7516;43.570;1.448;2022-11-20T07:07:22;0.90;;;0.60;;
14847;SDS011;7516;43.570;1.448;2022-11-20T07:09:50;0.70;;;0.60;;
14847;SDS011;7516;43.570;1.448;2022-11-20T07:12:17;1.33;;;0.60;;
14847;SDS011;7516;43.570;1.448;2022-11-20T07:14:46;0.97;;;0.80;;
14847;SDS011;7516;43.570;1.448;2022-11-20T07:17:14;2.00;;;0.80;;
14847;SDS011;7516;43.570;1.448;2022-11-20T07:19:41;0.87;;;0.60;;
14847;SDS011;7516;43.570;1.448;2022-11-20T07:22:09;1.30;;;0.60;;
14847;SDS011;7516;43.570;1.448;2022-11-20T07:24:36;0.90;;;0.80;;
14847;SDS011;7516;43.570;1.448;2022-11-20T07:27:04;0.87;;;0.70;;
14847;SDS011;7516;43.570;1.448;2022-11-20T07:29:31;1.93;;;0.60;;
14847;SDS011;7516;43.570;1.448;2022-11-20T07:32:00;0.80;;;0.60;;
14847;SDS011;7516;43.570;1.448;2022-11-20T07:34:28;2.03;;;0.60;;
14847;SDS011;7516;43.570;1.448;2022-11-20T07:36:55;1.30;;;0.70;;
14847;SDS011;7516;43.570;1.448;2022-11-20T07:39:23;1.23;;;0.60;;
14847;SDS011;7516;43.570;1.448;2022-11-20T07:41:50;0.80;;;0.73;;
14847;SDS011;7516;43.570;1.448;2022-11-20T07:44:17;2.40;;;0.60;;
14847;SDS011;7516;43.570;1.448;2022-11-20T07:46:45;0.60;;;0.60;;
14847;SDS011;7516;43.570;1.448;2022-11-20T07:49:14;0.67;;;0.60;;
14847;SDS011;7516;43.570;1.448;2022-11-20T07:51:41;1.13;;;0.60;;
14847;SDS011;7516;43.570;1.448;2022-11-20T07:54:09;0.80;;;0.70;;
14847;SDS011;7516;43.570;1.448;2022-11-20T07:56:36;1.17;;;0.80;;
14847;SDS011;7516;43.570;1.448;2022-11-20T07:59:04;0.97;;;0.67;;
14847;SDS011;7516;43.570;1.448;2022-11-20T08:01:31;1.27;;;0.70;;
14847;SDS011;7516;43.570;1.448;2022-11-20T08:03:59;1.07;;;0.63;;
14847;SDS011;7516;43.570;1.448;2022-11-20T08:06:27;0.80;;;0.70;;
14847;SDS011;7516;43.570;1.448;2022-11-20T08:08:55;1.70;;;0.90;;
14847;SDS011;7516;43.570;1.448;2022-11-20T08:11:22;0.67;;;0.60;;
14847;SDS011;7516;43.570;1.448;2022-11-20T08:14:07;0.90;;;0.70;;
14847;SDS011;7516;43.570;1.448;2022-11-20T08:16:38;1.23;;;0.70;;
14847;SDS011;7516;43.570;1.448;2022-11-20T08:19:06;1.10;;;0.70;;
14847;SDS011;7516;43.570;1.448;2022-11-20T08:21:35;2.50;;;0.80;;
14847;SDS011;7516;43.570;1.448;2022-11-20T08:24:03;1.17;;;0.70;;
14847;SDS011;7516;43.570;1.448;2022-11-20T08:26:31;1.40;;;0.60;;
14847;SDS011;7516;43.570;1.448;2022-11-20T08:28:59;1.80;;;0.60;;
14847;SDS011;7516;43.570;1.448;2022-11-20T08:31:26;0.97;;;0.83;;
14847;SDS011;7516;43.570;1.448;2022-11-20T08:33:54;0.60;;;0.60;;
14847;SDS011;7516;43.570;1.448;2022-11-20T08:36:23;0.90;;;0.80;;
14847;SDS011;7516;43.570;1.448;2022-11-20T08:38:53;0.90;;;0.60;;
14847;SDS011;7516;43.570;1.448;2022-11-20T08:41:21;0.70;;;0.60;;
14847;SDS011;7516;43.570;1.448;2022-11-20T08:43:53;1.13;;;0.43;;
14847;SDS011;7516;43.570;1.448;2022-11-20T08:46:22;1.10;;;0.60;;
14847;SDS011;7516;43.570;1.448;2022-11-20T08:48:51;0.90;;;0.80;;
14847;SDS011;7516;43.570;1.448;2022-11-20T08:51:19;1.97;;;0.90;;
14847;SDS011;7516;43.570;1.448;2022-11-20T08:53:46;1.83;;;0.60;;
14847;SDS011;7516;43.570;1.448;2022-11-20T08:56:16;1.00;;;0.63;;
14847;SDS011;7516;43.570;1.448;2022-11-20T08:58:43;1.00;;;0.70;;
14847;SDS011;7516;43.570;1.448;2022-11-20T09:01:11;0.87;;;0.87;;
14847;SDS011;7516;43.570;1.448;2022-11-20T09:03:39;0.90;;;0.70;;
14847;SDS011;7516;43.570;1.448;2022-11-20T09:06:07;0.97;;;0.70;;
14847;SDS011;7516;43.570;1.448;2022-11-20T09:08:34;1.00;;;0.60;;
14847;SDS011;7516;43.570;1.448;2022-11-20T09:11:02;1.23;;;0.70;;
14847;SDS011;7516;43.570;1.448;2022-11-20T09:13:32;0.70;;;0.63;;
14847;SDS011;7516;43.570;1.448;2022-11-20T09:16:01;1.20;;;0.70;;
14847;SDS011;7516;43.570;1.448;2022-11-20T09:18:30;0.63;;;0.60;;
14847;SDS011;7516;43.570;1.448;2022-11-20T09:21:01;1.37;;;0.67;;
14847;SDS011;7516;43.570;1.448;2022-11-20T09:23:31;1.20;;;0.53;;
14847;SDS011;7516;43.570;1.448;2022-11-20T09:26:03;0.60;;;0.60;;
14847;SDS011;7516;43.570;1.448;2022-11-20T09:28:33;1.17;;;0.70;;
14847;SDS011;7516;43.570;1.448;2022-11-20T09:31:03;1.63;;;0.70;;
14847;SDS011;7516;43.570;1.448;2022-11-20T09:33:32;0.87;;;0.70;;
14847;SDS011;7516;43.570;1.448;2022-11-20T09:35:59;1.60;;;0.70;;
14847;SDS011;7516;43.570;1.448;2022-11-20T09:38:27;1.90;;;1.00;;
14847;SDS011;7516;43.570;1.448;2022-11-20T09:40:56;1.33;;;0.60;;
14847;SDS011;7516;43.570;1.448;2022-11-20T09:43:35;0.87;;;0.50;;
14847;SDS011;7516;43.570;1.448;2022-11-20T09:46:13;1.33;;;0.70;;
14847;SDS011;7516;43.570;1.448;2022-11-20T09:48:55;1.07;;;0.57;;
14847;SDS011;7516;43.570;1.448;2022-11-20T09:51:42;0.70;;;0.60;;
14847;SDS011;7516;43.570;1.448;2022-11-20T09:54:19;0.70;;;0.60;;
14847;SDS011;7516;43.570;1.448;2022-11-20T09:56:53;1.67;;;0.73;;
14847;SDS011;7516;43.570;1.448;2022-11-20T09:59:26;1.00;;;0.70;;
14847;SDS011;7516;43.570;1.448;2022-11-20T10:02:00;0.73;;;0.63;;
14847;SDS011;7516;43.570;1.448;2022-11-20T10:04:29;1.60;;;0.70;;
14847;SDS011;7516;43.570;1.448;2022-11-20T10:07:00;0.53;;;0.53;;
14847;SDS011;7516;43.570;1.448;2022-11-20T10:09:34;0.73;;;0.65;;
14847;SDS011;7516;43.570;1.448;2022-11-20T10:12:06;0.93;;;0.70;;
14847;SDS011;7516;43.570;1.448;2022-11-20T10:14:45;1.98;;;0.50;;
14847;SDS011;7516;43.570;1.448;2022-11-20T10:17:23;0.80;;;0.70;;
14847;SDS011;7516;43.570;1.448;2022-11-20T10:20:08;0.77;;;0.70;;
14847;SDS011;7516;43.570;1.448;2022-11-20T10:22:47;1.40;;;0.57;;
14847;SDS011;7516;43.570;1.448;2022-11-20T10:25:26;4.63;;;0.50;;
14847;SDS011;7516;43.570;1.448;2022-11-20T10:28:21;1.00;;;0.60;;
14847;SDS011;7516;43.570;1.448;2022-11-20T10:30:57;2.10;;;1.10;;
14847;SDS011;7516;43.570;1.448;2022-11-20T10:33:29;0.87;;;0.60;;
14847;SDS011;7516;43.570;1.448;2022-11-20T10:36:04;1.60;;;0.70;;
14847;SDS011;7516;43.570;1.448;2022-11-20T10:38:40;1.65;;;0.70;;
14847;SDS011;7516;43.570;1.448;2022-11-20T10:41:16;1.53;;;0.90;;
14847;SDS011;7516;43.570;1.448;2022-11-20T10:43:51;2.10;;;0.80;;
14847;SDS011;7516;43.570;1.448;2022-11-20T10:46:27;0.90;;;0.60;;
14847;SDS011;7516;43.570;1.448;2022-11-20T10:49:04;3.23;;;0.70;;
14847;SDS011;7516;43.570;1.448;2022-11-20T10:51:39;0.87;;;0.60;;
14847;SDS011;7516;43.570;1.448;2022-11-20T10:54:17;1.17;;;0.70;;
14847;SDS011;7516;43.570;1.448;2022-11-20T10:56:51;1.47;;;1.00;;
14847;SDS011;7516;43.570;1.448;2022-11-20T11:02:19;2.23;;;0.80;;
14847;SDS011;7516;43.570;1.448;2022-11-20T11:04:49;2.03;;;0.60;;
14847;SDS011;7516;43.570;1.448;2022-11-20T11:07:19;1.10;;;0.80;;
14847;SDS011;7516;43.570;1.448;2022-11-20T11:09:50;1.77;;;0.80;;
14847;SDS011;7516;43.570;1.448;2022-11-20T11:12:20;1.30;;;0.90;;
14847;SDS011;7516;43.570;1.448;2022-11-20T11:14:51;1.47;;;0.80;;
14847;SDS011;7516;43.570;1.448;2022-11-20T11:17:22;1.00;;;0.63;;
14847;SDS011;7516;43.570;1.448;2022-11-20T11:19:59;1.03;;;0.70;;
14847;SDS011;7516;43.570;1.448;2022-11-20T11:22:29;0.60;;;0.50;;
14847;SDS011;7516;43.570;1.448;2022-11-20T11:24:58;0.67;;;0.60;;
14847;SDS011;7516;43.570;1.448;2022-11-20T11:27:26;1.03;;;0.77;;
14847;SDS011;7516;43.570;1.448;2022-11-20T11:30:01;0.87;;;0.70;;
14847;SDS011;7516;43.570;1.448;2022-11-20T11:32:39;0.93;;;0.63;;
14847;SDS011;7516;43.570;1.448;2022-11-20T11:35:18;0.90;;;0.60;;
14847;SDS011;7516;43.570;1.448;2022-11-20T11:37:51;1.53;;;0.90;;
14847;SDS011;7516;43.570;1.448;2022-11-20T11:40:21;1.40;;;0.70;;
14847;SDS011;7516;43.570;1.448;2022-11-20T11:42:56;1.10;;;0.70;;
14847;SDS011;7516;43.570;1.448;2022-11-20T11:45:26;0.70;;;0.70;;
14847;SDS011;7516;43.570;1.448;2022-11-20T11:47:55;0.53;;;0.50;;
14847;SDS011;7516;43.570;1.448;2022-11-20T11:50:25;0.80;;;0.70;;
14847;SDS011;7516;43.570;1.448;2022-11-20T11:52:55;0.90;;;0.70;;
14847;SDS011;7516;43.570;1.448;2022-11-20T11:55:31;1.33;;;0.70;;
14847;SDS011;7516;43.570;1.448;2022-11-20T11:58:11;1.20;;;1.00;;
14847;SDS011;7516;43.570;1.448;2022-11-20T12:01:01;1.97;;;0.80;;
14847;SDS011;7516;43.570;1.448;2022-11-20T12:03:38;0.93;;;0.80;;
14847;SDS011;7516;43.570;1.448;2022-11-20T12:06:10;1.00;;;0.90;;
14847;SDS011;7516;43.570;1.448;2022-11-20T12:08:41;0.73;;;0.60;;
14847;SDS011;7516;43.570;1.448;2022-11-20T12:11:16;0.70;;;0.60;;
14847;SDS011;7516;43.570;1.448;2022-11-20T12:13:50;1.20;;;0.80;;
14847;SDS011;7516;43.570;1.448;2022-11-20T12:16:26;0.73;;;0.63;;
14847;SDS011;7516;43.570;1.448;2022-11-20T12:18:58;1.67;;;0.80;;
14847;SDS011;7516;43.570;1.448;2022-11-20T12:21:28;1.73;;;0.80;;
14847;SDS011;7516;43.570;1.448;2022-11-20T12:24:11;1.03;;;0.70;;
14847;SDS011;7516;43.570;1.448;2022-11-20T12:27:04;1.10;;;0.70;;
14847;SDS011;7516;43.570;1.448;2022-11-20T12:29:48;1.43;;;0.90;;
14847;SDS011;7516;43.570;1.448;2022-11-20T12:32:31;1.60;;;0.70;;
14847;SDS011;7516;43.570;1.448;2022-11-20T12:35:25;1.83;;;0.70;;
14847;SDS011;7516;43.570;1.448;2022-11-20T12:38:25;1.50;;;1.10;;
14847;SDS011;7516;43.570;1.448;2022-11-20T12:41:03;1.13;;;0.83;;
14847;SDS011;7516;43.570;1.448;2022-11-20T12:43:36;0.90;;;0.70;;
14847;SDS011;7516;43.570;1.448;2022-11-20T12:46:29;1.93;;;1.20;;
14847;SDS011;7516;43.570;1.448;2022-11-20T12:49:12;1.17;;;0.87;;
14847;SDS011;7516;43.570;1.448;2022-11-20T12:52:05;1.30;;;0.80;;
14847;SDS011;7516;43.570;1.448;2022-11-20T12:54:50;1.50;;;0.80;;
14847;SDS011;7516;43.570;1.448;2022-11-20T12:57:44;0.97;;;0.70;;
14847;SDS011;7516;43.570;1.448;2022-11-20T13:00:16;2.13;;;1.33;;
14847;SDS011;7516;43.570;1.448;2022-11-20T13:03:05;1.10;;;1.00;;
14847;SDS011;7516;43.570;1.448;2022-11-20T13:05:59;1.87;;;1.10;;
14847;SDS011;7516;43.570;1.448;2022-11-20T13:08:34;1.50;;;0.90;;
14847;SDS011;7516;43.570;1.448;2022-11-20T13:11:05;1.67;;;0.80;;
14847;SDS011;7516;43.570;1.448;2022-11-20T13:13:42;0.90;;;0.70;;
14847;SDS011;7516;43.570;1.448;2022-11-20T13:16:30;1.80;;;0.80;;
14847;SDS011;7516;43.570;1.448;2022-11-20T13:19:03;1.43;;;0.73;;
14847;SDS011;7516;43.570;1.448;2022-11-20T13:21:37;0.93;;;0.70;;
14847;SDS011;7516;43.570;1.448;2022-11-20T13:24:19;1.23;;;0.80;;
14847;SDS011;7516;43.570;1.448;2022-11-20T13:26:59;0.83;;;0.80;;
14847;SDS011;7516;43.570;1.448;2022-11-20T13:29:31;0.97;;;0.83;;
14847;SDS011;7516;43.570;1.448;2022-11-20T13:32:03;1.47;;;0.90;;
14847;SDS011;7516;43.570;1.448;2022-11-20T13:34:34;1.33;;;0.70;;
14847;SDS011;7516;43.570;1.448;2022-11-20T13:37:02;1.20;;;0.70;;
14847;SDS011;7516;43.570;1.448;2022-11-20T13:39:31;1.40;;;0.77;;
14847;SDS011;7516;43.570;1.448;2022-11-20T13:42:00;1.90;;;0.80;;
14847;SDS011;7516;43.570;1.448;2022-11-20T13:44:31;4.53;;;0.70;;
14847;SDS011;7516;43.570;1.448;2022-11-20T13:47:03;1.00;;;0.90;;
14847;SDS011;7516;43.570;1.448;2022-11-20T13:49:46;1.37;;;0.80;;
14847;SDS011;7516;43.570;1.448;2022-11-20T13:52:34;1.07;;;0.70;;
14847;SDS011;7516;43.570;1.448;2022-11-20T13:55:13;0.70;;;0.70;;
14847;SDS011;7516;43.570;1.448;2022-11-20T13:58:01;2.03;;;0.90;;
14847;SDS011;7516;43.570;1.448;2022-11-20T14:00:48;1.30;;;0.80;;
14847;SDS011;7516;43.570;1.448;2022-11-20T14:03:22;1.03;;;0.80;;
14847;SDS011;7516;43.570;1.448;2022-11-20T14:05:52;2.13;;;0.93;;
14847;SDS011;7516;43.570;1.448;2022-11-20T14:08:27;2.83;;;2.10;;
14847;SDS011;7516;43.570;1.448;2022-11-20T14:11:12;1.40;;;1.30;;
14847;SDS011;7516;43.570;1.448;2022-11-20T14:13:55;1.90;;;1.30;;
14847;SDS011;7516;43.570;1.448;2022-11-20T14:16:26;2.77;;;1.30;;
14847;SDS011;7516;43.570;1.448;2022-11-20T14:18:55;1.77;;;1.43;;
14847;SDS011;7516;43.570;1.448;2022-11-20T14:21:24;2.50;;;1.70;;
14847;SDS011;7516;43.570;1.448;2022-11-20T14:23:53;3.73;;;2.40;;
14847;SDS011;7516;43.570;1.448;2022-11-20T14:26:30;3.70;;;2.37;;
14847;SDS011;7516;43.570;1.448;2022-11-20T14:28:59;2.40;;;1.80;;
14847;SDS011;7516;43.570;1.448;2022-11-20T14:31:26;2.90;;;2.10;;
14847;SDS011;7516;43.570;1.448;2022-11-20T14:33:55;4.90;;;2.27;;
14847;SDS011;7516;43.570;1.448;2022-11-20T14:36:24;3.60;;;1.80;;
14847;SDS011;7516;43.570;1.448;2022-11-20T14:38:53;5.10;;;2.50;;
14847;SDS011;7516;43.570;1.448;2022-11-20T14:41:22;5.13;;;2.80;;
14847;SDS011;7516;43.570;1.448;2022-11-20T14:43:52;3.07;;;2.30;;
14847;SDS011;7516;43.570;1.448;2022-11-20T14:46:22;6.17;;;3.00;;
14847;SDS011;7516;43.570;1.448;2022-11-20T14:48:51;5.00;;;2.30;;
14847;SDS011;7516;43.570;1.448;2022-11-20T14:51:28;6.80;;;2.20;;
14847;SDS011;7516;43.570;1.448;2022-11-20T14:54:07;5.07;;;2.27;;
14847;SDS011;7516;43.570;1.448;2022-11-20T14:56:36;4.93;;;2.00;;
14847;SDS011;7516;43.570;1.448;2022-11-20T14:59:05;8.43;;;2.87;;
14847;SDS011;7516;43.570;1.448;2022-11-20T15:01:33;6.17;;;2.40;;
14847;SDS011;7516;43.570;1.448;2022-11-20T15:04:05;7.73;;;2.90;;
14847;SDS011;7516;43.570;1.448;2022-11-20T15:06:35;8.07;;;2.27;;
14847;SDS011;7516;43.570;1.448;2022-11-20T15:09:04;6.07;;;2.30;;
14847;SDS011;7516;43.570;1.448;2022-11-20T15:11:39;6.97;;;1.70;;
14847;SDS011;7516;43.570;1.448;2022-11-20T15:14:21;9.83;;;2.50;;
14847;SDS011;7516;43.570;1.448;2022-11-20T15:16:50;5.43;;;1.80;;
14847;SDS011;7516;43.570;1.448;2022-11-20T15:19:19;9.37;;;2.90;;
14847;SDS011;7516;43.570;1.448;2022-11-20T15:21:48;8.47;;;2.57;;
14847;SDS011;7516;43.570;1.448;2022-11-20T15:24:16;7.87;;;2.50;;
14847;SDS011;7516;43.570;1.448;2022-11-20T15:26:44;10.70;;;3.20;;
14847;SDS011;7516;43.570;1.448;2022-11-20T15:29:14;9.67;;;2.93;;